LUKK/KIV METAR and TAF weather

Enter ICAO airport designator
Station Type Date Time Source
LUKK METAR 2019/09/20 20:30 UTC NOAA

LUKK 202030Z 32007KT CAVOK 09/02 Q1023 R08/CLRD// NOSIG


Station Type Date Time Source
LUKK Decoded METAR 2019/09/20 20:30 UTC NOAA

Chisinau International Airport, Moldova (LUKK) 46-55-40N 028-55-51E
Sep 20, 2019 - 04:30 PM EDT / 2019.09.20 2030 UTC
Wind: from the NW (320 degrees) at 8 MPH (7 KT):0
Visibility: greater than 7 mile(s):0
Temperature: 48 F (9 C)
Dew Point: 35 F (2 C)
Relative Humidity: 61%
Pressure (altimeter): 30.21 in. Hg (1023 hPa)
ob: LUKK 202030Z 32007KT CAVOK 09/02 Q1023 R08/CLRD// NOSIG
cycle: 20

Station Type Date Time Source
LUKK TAF 2019/09/20 18:24 UTC NOAA

TAF TAF LUKK 201720Z 2018/2118 32008KT CAVOK
BECMG 2106/2108 29012KT
BECMG 2114/2116 25006KT

Example: see airport list